Time;durP1;ratioP1;P1;durP2;ratioP2;P2;SDS_P1;SDS_P2;PMS_P1;PMS_P2;Temp;Humidity;BMP_temperature;BMP_pressure;BME280_temperature;BME280_humidity;BME280_pressure;Samples;Min_cycle;Max_cycle;Signal;HPM_P1;HPM_P2
2023/01/10 00:03:00;;;;;;;40.90;19.20;;;;;;;;;;8189530;29;20053;-84
2023/01/10 00:07:03;;;;;;;38.88;18.27;;;;;;;;;;8207211;28;20055;-88
2023/01/10 00:13:22;;;;;;;41.50;18.58;;;;;;;;;;8186855;29;20196;-84
2023/01/10 00:15:33;;;;;;;42.78;18.98;;;;;;;;;;8199974;28;20059;-84
2023/01/10 00:19:36;;;;;;;48.35;20.17;;;;;;;;;;8199824;29;20054;-84
2023/01/10 00:23:39;;;;;;;48.00;21.20;;;;;;;;;;8200105;29;20051;-84
2023/01/10 00:27:44;;;;;;;48.67;21.08;;;;;;;;;;8199462;29;20050;-83
2023/01/10 00:31:49;;;;;;;50.17;20.90;;;;;;;;;;8190411;29;20451;-83
2023/01/10 00:35:52;;;;;;;48.20;19.95;;;;;;;;;;8199612;29;20047;-84
2023/01/10 00:39:55;;;;;;;49.78;20.23;;;;;;;;;;8186228;28;20134;-83
2023/01/10 00:43:57;;;;;;;46.83;20.63;;;;;;;;;;8200967;28;20117;-89
2023/01/10 00:48:01;;;;;;;48.65;20.38;;;;;;;;;;8196327;28;20043;-86
2023/01/10 00:52:04;;;;;;;57.33;23.70;;;;;;;;;;8198552;28;20543;-84
2023/01/10 00:56:07;;;;;;;58.40;25.30;;;;;;;;;;8188278;28;20477;-84
2023/01/10 01:00:11;;;;;;;69.93;27.10;;;;;;;;;;8169006;28;20044;-84
2023/01/10 01:04:15;;;;;;;62.08;26.10;;;;;;;;;;8159080;29;20047;-84
2023/01/10 01:08:20;;;;;;;64.75;25.48;;;;;;;;;;8177078;28;20518;-90
2023/01/10 01:12:23;;;;;;;68.05;24.73;;;;;;;;;;8192264;28;20157;-84
2023/01/10 01:16:25;;;;;;;56.33;24.13;;;;;;;;;;8203888;28;20376;-84
2023/01/10 01:20:30;;;;;;;51.20;22.38;;;;;;;;;;8205457;28;20142;-83
2023/01/10 01:24:33;;;;;;;54.85;21.38;;;;;;;;;;8201899;28;20122;-85
2023/01/10 01:28:37;;;;;;;57.33;23.38;;;;;;;;;;8211918;28;20085;-83
2023/01/10 01:32:41;;;;;;;58.10;22.92;;;;;;;;;;8198674;29;20174;-88
2023/01/10 01:36:47;;;;;;;135.70;23.92;;;;;;;;;;8204678;29;20047;-89
2023/01/10 01:40:50;;;;;;;54.03;21.15;;;;;;;;;;8204644;29;20046;-83
2023/01/10 01:45:37;;;;;;;51.28;21.85;;;;;;;;;;8204610;29;20058;-84
2023/01/10 01:49:44;;;;;;;59.03;22.88;;;;;;;;;;8205010;29;20384;-83
2023/01/10 01:53:51;;;;;;;64.65;24.35;;;;;;;;;;8204848;29;20412;-84
2023/01/10 01:57:57;;;;;;;66.93;24.20;;;;;;;;;;8204186;29;20050;-84
2023/01/10 02:02:04;;;;;;;63.70;23.35;;;;;;;;;;8204191;29;20040;-88
2023/01/10 02:06:07;;;;;;;65.93;24.25;;;;;;;;;;8204091;29;20444;-84
2023/01/10 02:10:17;;;;;;;63.47;22.98;;;;;;;;;;8203694;29;20132;-83
2023/01/10 02:14:21;;;;;;;62.63;22.55;;;;;;;;;;8203193;28;20665;-84
2023/01/10 02:18:25;;;;;;;63.15;22.38;;;;;;;;;;8203721;29;20564;-84
2023/01/10 02:22:55;;;;;;;58.40;21.05;;;;;;;;;;8203032;29;20047;-86
2023/01/10 02:27:18;;;;;;;51.78;21.25;;;;;;;;;;8203638;29;20048;-83
2023/01/10 02:32:09;;;;;;;56.53;21.02;;;;;;;;;;8203351;29;20185;-84
2023/01/10 02:36:27;;;;;;;57.13;22.20;;;;;;;;;;8144427;29;20542;-88
2023/01/10 02:40:39;;;;;;;52.63;20.73;;;;;;;;;;8202605;29;20039;-84
2023/01/10 02:44:46;;;;;;;57.95;21.75;;;;;;;;;;8202657;29;20058;-84
2023/01/10 02:48:49;;;;;;;50.75;21.38;;;;;;;;;;8202508;29;20049;-88
2023/01/10 02:52:54;;;;;;;58.22;21.85;;;;;;;;;;8202745;29;20217;-84
2023/01/10 02:57:27;;;;;;;48.92;19.92;;;;;;;;;;8191282;28;20050;-84
2023/01/10 03:01:38;;;;;;;55.08;21.10;;;;;;;;;;8202350;29;20481;-84
2023/01/10 03:05:52;;;;;;;59.10;22.27;;;;;;;;;;8202263;29;20142;-85
2023/01/10 03:10:01;;;;;;;53.08;22.08;;;;;;;;;;8201618;29;20053;-84
2023/01/10 03:14:05;;;;;;;51.45;20.75;;;;;;;;;;8201693;29;20066;-84
2023/01/10 03:18:13;;;;;;;50.13;19.23;;;;;;;;;;8189050;29;20126;-84
2023/01/10 03:22:17;;;;;;;57.22;22.33;;;;;;;;;;8202427;28;20047;-84
2023/01/10 03:26:27;;;;;;;54.17;20.38;;;;;;;;;;8212445;28;20074;-84
2023/01/10 03:30:36;;;;;;;47.33;20.17;;;;;;;;;;8201413;29;20043;-84
2023/01/10 03:34:39;;;;;;;49.47;19.73;;;;;;;;;;8201699;29;20051;-84
2023/01/10 03:38:48;;;;;;;56.53;21.27;;;;;;;;;;8201401;29;20125;-84
2023/01/10 03:47:26;;;;;;;65.35;26.15;;;;;;;;;;8201164;29;20126;-84
2023/01/10 03:51:30;;;;;;;65.22;22.15;;;;;;;;;;8200869;29;20130;-84
2023/01/10 03:55:33;;;;;;;53.25;22.30;;;;;;;;;;8200723;29;20523;-83
2023/01/10 03:59:38;;;;;;;46.60;20.48;;;;;;;;;;8200930;29;20498;-83
2023/01/10 04:03:40;;;;;;;48.67;20.73;;;;;;;;;;8200646;29;20411;-84
2023/01/10 04:07:43;;;;;;;50.10;20.83;;;;;;;;;;8200420;29;20051;-84
2023/01/10 04:11:46;;;;;;;51.08;19.58;;;;;;;;;;8200332;29;20427;-86
2023/01/10 04:15:50;;;;;;;51.40;20.35;;;;;;;;;;8200021;29;20113;-83
2023/01/10 04:19:53;;;;;;;47.35;19.33;;;;;;;;;;8200684;29;20494;-84
2023/01/10 04:23:56;;;;;;;55.10;21.02;;;;;;;;;;8199940;29;20665;-83
2023/01/10 04:27:59;;;;;;;48.30;19.92;;;;;;;;;;8200072;29;20482;-84
2023/01/10 04:32:04;;;;;;;41.72;19.00;;;;;;;;;;8199983;29;20500;-84
2023/01/10 04:36:07;;;;;;;47.70;22.17;;;;;;;;;;8202492;28;20063;-83
2023/01/10 04:40:12;;;;;;;49.00;21.05;;;;;;;;;;8206372;29;20047;-83
2023/01/10 04:44:14;;;;;;;48.17;18.92;;;;;;;;;;8204764;29;20052;-84
2023/01/10 04:48:19;;;;;;;45.90;19.15;;;;;;;;;;8203660;29;20146;-84
2023/01/10 04:52:24;;;;;;;54.53;21.48;;;;;;;;;;8206191;29;20062;-84
2023/01/10 04:56:27;;;;;;;46.10;20.58;;;;;;;;;;8205972;29;20047;-84
2023/01/10 05:00:30;;;;;;;48.15;20.25;;;;;;;;;;8197345;29;20059;-88
2023/01/10 05:04:34;;;;;;;46.92;20.08;;;;;;;;;;8205762;29;20075;-85
2023/01/10 05:08:37;;;;;;;48.95;21.45;;;;;;;;;;8205650;29;20043;-84
2023/01/10 05:12:40;;;;;;;53.60;23.45;;;;;;;;;;8205489;29;20454;-84
2023/01/10 05:16:43;;;;;;;63.45;27.15;;;;;;;;;;8205149;29;20047;-84
2023/01/10 05:20:47;;;;;;;60.22;26.83;;;;;;;;;;8203099;29;20113;-83
2023/01/10 05:24:50;;;;;;;60.63;25.90;;;;;;;;;;8205258;29;20051;-83
2023/01/10 05:28:53;;;;;;;57.47;25.73;;;;;;;;;;8205149;29;20454;-84
2023/01/10 05:32:56;;;;;;;54.50;23.33;;;;;;;;;;8211118;28;20390;-83
2023/01/10 05:37:00;;;;;;;48.95;21.55;;;;;;;;;;8200487;28;20055;-83
2023/01/10 05:41:03;;;;;;;44.45;19.67;;;;;;;;;;8198111;29;20404;-83
2023/01/10 05:45:07;;;;;;;49.42;21.00;;;;;;;;;;8204820;29;20134;-84
2023/01/10 05:49:10;;;;;;;50.65;21.05;;;;;;;;;;8195897;28;20043;-89
2023/01/10 05:53:14;;;;;;;48.35;19.25;;;;;;;;;;8200583;29;20866;-83
2023/01/10 05:57:18;;;;;;;45.35;17.70;;;;;;;;;;8195935;28;20043;-90
2023/01/10 06:01:20;;;;;;;48.80;20.25;;;;;;;;;;8177731;28;20047;-84
2023/01/10 06:05:23;;;;;;;54.30;23.52;;;;;;;;;;8194503;28;20075;-83
2023/01/10 06:09:27;;;;;;;49.72;22.42;;;;;;;;;;8207714;28;20854;-83
2023/01/10 06:13:30;;;;;;;50.75;21.70;;;;;;;;;;8189039;28;20062;-84
2023/01/10 06:17:33;;;;;;;51.45;23.13;;;;;;;;;;8174356;29;20051;-88
2023/01/10 06:21:36;;;;;;;56.67;26.05;;;;;;;;;;8173370;29;20052;-84
2023/01/10 06:25:41;;;;;;;52.60;25.00;;;;;;;;;;8180061;29;20571;-86
2023/01/10 06:29:44;;;;;;;50.47;24.98;;;;;;;;;;8176201;29;20054;-90
2023/01/10 06:33:50;;;;;;;57.92;28.70;;;;;;;;;;8172283;29;20050;-83
2023/01/10 06:37:52;;;;;;;58.75;28.27;;;;;;;;;;8185663;28;20134;-83
2023/01/10 06:41:57;;;;;;;66.53;32.83;;;;;;;;;;8199897;29;20138;-85
2023/01/10 06:46:00;;;;;;;60.00;26.60;;;;;;;;;;8196392;28;20043;-89
2023/01/10 06:50:03;;;;;;;60.42;27.63;;;;;;;;;;8190805;29;20129;-90
2023/01/10 06:54:07;;;;;;;61.88;26.17;;;;;;;;;;8202230;29;20074;-84
2023/01/10 06:58:11;;;;;;;60.35;25.63;;;;;;;;;;8201840;28;20107;-90
2023/01/10 07:02:14;;;;;;;50.47;24.63;;;;;;;;;;8201880;29;20051;-85
2023/01/10 07:06:17;;;;;;;56.15;24.30;;;;;;;;;;8214773;28;20130;-88
2023/01/10 07:10:20;;;;;;;57.58;23.50;;;;;;;;;;8201949;29;20073;-84
2023/01/10 07:14:25;;;;;;;60.97;25.40;;;;;;;;;;8201576;29;20058;-90
2023/01/10 07:18:28;;;;;;;56.30;23.92;;;;;;;;;;8192818;29;20058;-83
2023/01/10 07:22:31;;;;;;;57.05;25.80;;;;;;;;;;8191569;29;20130;-86
2023/01/10 07:26:34;;;;;;;57.33;26.50;;;;;;;;;;8191093;28;20105;-83
2023/01/10 07:30:38;;;;;;;68.28;25.98;;;;;;;;;;8201511;29;20194;-84
2023/01/10 07:34:41;;;;;;;69.10;27.17;;;;;;;;;;8188782;29;20055;-90
2023/01/10 07:38:44;;;;;;;77.95;28.35;;;;;;;;;;8200459;28;20118;-89
2023/01/10 07:42:47;;;;;;;64.07;24.65;;;;;;;;;;8198136;29;20135;-90
2023/01/10 07:46:51;;;;;;;56.20;24.45;;;;;;;;;;8195361;28;20059;-91
2023/01/10 07:50:56;;;;;;;56.90;22.15;;;;;;;;;;8187795;28;20043;-91
2023/01/10 07:54:59;;;;;;;86.97;32.50;;;;;;;;;;8210745;28;20126;-90
2023/01/10 07:59:02;;;;;;;63.85;26.75;;;;;;;;;;8199418;28;20051;-83
2023/01/10 08:03:06;;;;;;;63.22;24.55;;;;;;;;;;8200358;28;20053;-90
2023/01/10 08:07:09;;;;;;;79.25;27.73;;;;;;;;;;8189729;28;20054;-91
2023/01/10 08:11:12;;;;;;;67.50;25.95;;;;;;;;;;8199627;28;20047;-84
2023/01/10 08:15:15;;;;;;;67.70;26.00;;;;;;;;;;8200300;29;20203;-84
2023/01/10 08:19:19;;;;;;;65.88;26.10;;;;;;;;;;8200194;29;20055;-87
2023/01/10 08:23:22;;;;;;;71.57;27.67;;;;;;;;;;8183843;28;20043;-88
2023/01/10 08:27:25;;;;;;;71.60;28.33;;;;;;;;;;8191890;28;20400;-85
2023/01/10 08:31:28;;;;;;;72.13;28.63;;;;;;;;;;8196456;29;20158;-88
2023/01/10 08:35:37;;;;;;;60.72;25.60;;;;;;;;;;8197162;29;20075;-88
2023/01/10 08:39:40;;;;;;;68.38;25.90;;;;;;;;;;8197816;29;20579;-89
2023/01/10 08:43:43;;;;;;;76.53;28.77;;;;;;;;;;8198979;29;20058;-86
2023/01/10 08:47:46;;;;;;;67.03;26.85;;;;;;;;;;8192019;29;20047;-88
2023/01/10 08:51:50;;;;;;;73.57;27.15;;;;;;;;;;8199650;29;20043;-89
2023/01/10 08:55:53;;;;;;;58.38;24.00;;;;;;;;;;8200237;29;20051;-88
2023/01/10 08:59:56;;;;;;;63.40;27.00;;;;;;;;;;8199998;29;20575;-87
2023/01/10 09:03:59;;;;;;;69.90;27.15;;;;;;;;;;8199601;29;20053;-87
2023/01/10 09:08:04;;;;;;;57.10;22.58;;;;;;;;;;8199275;29;20047;-86
2023/01/10 09:12:53;;;;;;;57.50;23.92;;;;;;;;;;8199767;29;20058;-88
2023/01/10 09:16:30;;;;;;;55.65;23.75;;;;;;;;;;8199298;29;20566;-89
2023/01/10 09:20:36;;;;;;;65.22;26.77;;;;;;;;;;8199315;29;20408;-85
2023/01/10 09:24:40;;;;;;;50.33;21.75;;;;;;;;;;8191293;29;20134;-88
2023/01/10 09:28:43;;;;;;;49.78;21.45;;;;;;;;;;8205640;29;20491;-88
2023/01/10 09:32:50;;;;;;;55.50;22.08;;;;;;;;;;8197119;29;20082;-89
2023/01/10 09:36:53;;;;;;;53.45;21.05;;;;;;;;;;8204881;29;20043;-86
2023/01/10 09:41:25;;;;;;;48.65;21.45;;;;;;;;;;8204999;29;20499;-89
2023/01/10 09:45:38;;;;;;;53.90;22.67;;;;;;;;;;8202351;29;20043;-86
2023/01/10 09:49:48;;;;;;;51.55;20.60;;;;;;;;;;8204614;29;20051;-87
2023/01/10 09:53:54;;;;;;;41.47;19.92;;;;;;;;;;8204898;29;20090;-84
2023/01/10 09:58:00;;;;;;;48.50;20.42;;;;;;;;;;8204182;29;20061;-87
2023/01/10 10:02:17;;;;;;;39.72;17.35;;;;;;;;;;8204075;29;20043;-89
2023/01/10 10:06:22;;;;;;;47.58;21.65;;;;;;;;;;8203643;29;20043;-88
2023/01/10 10:10:27;;;;;;;40.28;16.75;;;;;;;;;;8213987;28;20120;-89
2023/01/10 10:14:45;;;;;;;42.38;20.10;;;;;;;;;;8205442;28;20139;-89
2023/01/10 10:18:59;;;;;;;43.13;18.50;;;;;;;;;;8203663;29;20167;-87
2023/01/10 10:23:20;;;;;;;33.42;15.25;;;;;;;;;;8203444;29;20046;-89
2023/01/10 10:27:29;;;;;;;41.17;18.33;;;;;;;;;;8203724;29;20047;-89
2023/01/10 10:31:50;;;;;;;46.72;19.55;;;;;;;;;;8203270;29;20059;-88
2023/01/10 10:35:57;;;;;;;38.33;17.10;;;;;;;;;;8202986;28;20047;-89
2023/01/10 10:40:02;;;;;;;39.67;19.95;;;;;;;;;;8202854;29;20047;-86
2023/01/10 10:44:28;;;;;;;33.90;16.10;;;;;;;;;;8202901;29;20158;-84
2023/01/10 10:48:36;;;;;;;44.17;19.58;;;;;;;;;;8203119;29;20051;-84
2023/01/10 10:52:39;;;;;;;36.38;15.88;;;;;;;;;;8202927;29;20567;-84
2023/01/10 10:56:43;;;;;;;56.25;24.75;;;;;;;;;;8202218;29;20055;-83
2023/01/10 11:00:46;;;;;;;8.18;3.65;;;;;;;;;;8194390;29;20051;-86
2023/01/10 11:04:53;;;;;;;37.50;18.95;;;;;;;;;;8202124;29;20093;-85
2023/01/10 11:09:00;;;;;;;35.10;17.05;;;;;;;;;;8201837;29;20047;-83
2023/01/10 11:13:06;;;;;;;34.90;17.33;;;;;;;;;;8202049;29;20471;-83
2023/01/10 11:17:21;;;;;;;45.05;20.38;;;;;;;;;;8201677;29;20090;-85
2023/01/10 11:21:26;;;;;;;41.30;18.58;;;;;;;;;;8201760;29;20055;-87
2023/01/10 11:25:29;;;;;;;40.60;18.35;;;;;;;;;;8201366;29;20066;-87
2023/01/10 11:29:38;;;;;;;38.63;18.75;;;;;;;;;;8201686;29;20559;-88
2023/01/10 11:33:42;;;;;;;42.90;20.20;;;;;;;;;;8201335;29;20488;-86
2023/01/10 11:37:59;;;;;;;43.60;19.05;;;;;;;;;;8201138;29;20062;-87
2023/01/10 11:42:28;;;;;;;42.83;22.00;;;;;;;;;;8201023;29;20138;-88
2023/01/10 11:46:31;;;;;;;38.88;19.98;;;;;;;;;;8200396;28;20134;-84
2023/01/10 11:50:37;;;;;;;53.20;22.10;;;;;;;;;;8188475;29;20077;-87
2023/01/10 11:54:42;;;;;;;39.85;18.33;;;;;;;;;;8200515;29;20050;-85
2023/01/10 11:58:45;;;;;;;33.92;16.67;;;;;;;;;;8200686;29;20130;-86
2023/01/10 12:02:49;;;;;;;44.22;18.92;;;;;;;;;;8200966;29;20054;-87
2023/01/10 12:06:54;;;;;;;39.45;18.75;;;;;;;;;;8200556;29;20043;-88
2023/01/10 12:11:01;;;;;;;37.10;17.63;;;;;;;;;;8200280;29;20102;-89
2023/01/10 12:15:23;;;;;;;36.28;16.38;;;;;;;;;;8200301;29;20560;-86
2023/01/10 12:19:28;;;;;;;37.03;17.38;;;;;;;;;;8200077;29;20130;-88
2023/01/10 12:23:33;;;;;;;33.15;17.05;;;;;;;;;;8200117;29;20139;-88
2023/01/10 12:27:37;;;;;;;34.45;18.75;;;;;;;;;;8200425;29;20130;-87
2023/01/10 12:31:41;;;;;;;37.47;19.65;;;;;;;;;;8199918;29;20055;-84
2023/01/10 12:35:52;;;;;;;44.42;20.95;;;;;;;;;;8199868;29;20126;-87
2023/01/10 12:40:00;;;;;;;42.55;20.00;;;;;;;;;;8199839;29;20055;-86
2023/01/10 12:44:15;;;;;;;42.45;22.30;;;;;;;;;;8200285;29;20175;-87
2023/01/10 12:48:24;;;;;;;57.67;30.35;;;;;;;;;;8199574;29;20138;-87
2023/01/10 12:52:41;;;;;;;44.53;21.48;;;;;;;;;;8195615;28;20066;-88
2023/01/10 12:56:45;;;;;;;41.40;20.38;;;;;;;;;;8193428;28;20047;-88
2023/01/10 13:00:53;;;;;;;37.72;18.52;;;;;;;;;;8200360;28;20159;-87
2023/01/10 13:05:00;;;;;;;36.22;18.45;;;;;;;;;;8204197;28;20169;-87
2023/01/10 13:09:07;;;;;;;44.10;18.63;;;;;;;;;;8196524;28;20150;-86
2023/01/10 13:13:20;;;;;;;41.75;20.17;;;;;;;;;;8212630;28;20512;-85
2023/01/10 13:17:34;;;;;;;38.63;17.70;;;;;;;;;;8191030;28;20424;-86
2023/01/10 13:21:38;;;;;;;42.10;18.85;;;;;;;;;;8177749;28;20051;-85
2023/01/10 13:25:41;;;;;;;41.15;19.63;;;;;;;;;;8177414;28;20047;-84
2023/01/10 13:29:46;;;;;;;40.47;19.30;;;;;;;;;;8171862;28;20103;-85
2023/01/10 13:33:56;;;;;;;38.83;19.27;;;;;;;;;;8174408;28;20047;-86
2023/01/10 13:38:01;;;;;;;42.05;21.40;;;;;;;;;;8181599;29;20048;-86
2023/01/10 13:46:50;;;;;;;55.53;23.55;;;;;;;;;;8168505;29;20843;-87
2023/01/10 13:51:15;;;;;;;54.17;24.23;;;;;;;;;;8181932;29;20548;-87
2023/01/10 13:55:28;;;;;;;53.78;24.60;;;;;;;;;;8178593;29;20098;-83
2023/01/10 14:04:26;;;;;;;33.72;16.20;;;;;;;;;;8176912;28;20130;-84
2023/01/10 14:08:32;;;;;;;58.67;26.63;;;;;;;;;;8182263;28;20128;-84
2023/01/10 14:12:40;;;;;;;50.10;23.25;;;;;;;;;;8182761;29;20106;-86
2023/01/10 14:16:45;;;;;;;56.25;26.58;;;;;;;;;;8179910;29;20059;-87
2023/01/10 14:20:57;;;;;;;56.08;25.17;;;;;;;;;;8172140;29;20079;-89
2023/01/10 14:25:04;;;;;;;56.53;26.23;;;;;;;;;;8187309;29;20055;-87
2023/01/10 14:29:11;;;;;;;50.92;24.52;;;;;;;;;;8153887;29;20114;-86
2023/01/10 14:33:19;;;;;;;53.58;24.55;;;;;;;;;;8168287;28;20522;-85
2023/01/10 14:37:30;;;;;;;50.88;24.88;;;;;;;;;;8175834;29;20052;-87
2023/01/10 14:41:37;;;;;;;54.80;26.02;;;;;;;;;;8179231;29;20079;-83
2023/01/10 14:45:50;;;;;;;50.65;26.52;;;;;;;;;;8173715;29;20435;-86
2023/01/10 14:49:54;;;;;;;41.60;20.35;;;;;;;;;;8161663;29;20063;-89
2023/01/10 14:54:00;;;;;;;41.78;19.52;;;;;;;;;;8166566;29;20052;-88
2023/01/10 14:58:04;;;;;;;41.33;19.83;;;;;;;;;;8165750;28;20052;-87
2023/01/10 15:02:15;;;;;;;37.92;18.98;;;;;;;;;;8171724;29;20195;-86
2023/01/10 15:06:18;;;;;;;49.28;22.48;;;;;;;;;;8170591;29;20056;-87
2023/01/10 15:10:25;;;;;;;42.28;22.02;;;;;;;;;;8168909;29;20051;-85
2023/01/10 15:14:30;;;;;;;45.25;23.33;;;;;;;;;;8194826;29;20138;-86
2023/01/10 15:18:39;;;;;;;49.35;23.70;;;;;;;;;;8165522;29;20102;-88
2023/01/10 15:22:46;;;;;;;62.25;25.98;;;;;;;;;;8170358;29;20130;-87
2023/01/10 15:26:52;;;;;;;65.30;27.38;;;;;;;;;;8168759;29;20055;-84
2023/01/10 15:30:58;;;;;;;70.40;30.65;;;;;;;;;;8172795;29;20126;-86
2023/01/10 15:35:02;;;;;;;64.80;29.63;;;;;;;;;;8174231;29;20142;-88
2023/01/10 15:39:06;;;;;;;72.65;32.58;;;;;;;;;;8178254;29;20047;-85
2023/01/10 15:43:19;;;;;;;70.32;30.33;;;;;;;;;;8176983;29;20459;-88
2023/01/10 15:47:36;;;;;;;74.85;33.75;;;;;;;;;;8169640;29;20058;-84
2023/01/10 15:51:40;;;;;;;74.53;34.35;;;;;;;;;;8174979;28;20135;-87
2023/01/10 15:55:46;;;;;;;62.03;26.90;;;;;;;;;;8193384;28;20154;-87
2023/01/10 15:59:50;;;;;;;80.20;36.22;;;;;;;;;;8173026;28;20054;-87
2023/01/10 16:03:56;;;;;;;64.68;27.65;;;;;;;;;;8167008;29;20404;-85
2023/01/10 16:08:00;;;;;;;73.55;31.90;;;;;;;;;;8171857;29;20047;-85
2023/01/10 16:16:23;;;;;;;94.72;37.38;;;;;;;;;;8177083;28;20043;-84
2023/01/10 16:20:30;;;;;;;87.90;34.88;;;;;;;;;;8187512;28;20133;-86
2023/01/10 16:24:36;;;;;;;79.28;33.95;;;;;;;;;;8183577;28;20472;-84
2023/01/10 16:28:39;;;;;;;71.88;29.38;;;;;;;;;;8176976;28;20081;-87
2023/01/10 16:32:42;;;;;;;86.50;34.33;;;;;;;;;;8190327;28;20720;-82
2023/01/10 16:36:47;;;;;;;84.75;35.35;;;;;;;;;;8172097;28;20407;-83
2023/01/10 16:40:53;;;;;;;73.65;32.35;;;;;;;;;;8174541;28;20054;-89
2023/01/10 16:44:58;;;;;;;75.35;30.55;;;;;;;;;;8183470;28;20117;-88
2023/01/10 16:49:01;;;;;;;58.28;27.05;;;;;;;;;;8181181;28;20082;-84
2023/01/10 16:53:05;;;;;;;67.82;29.13;;;;;;;;;;8177869;28;20417;-83
2023/01/10 16:57:08;;;;;;;89.53;34.15;;;;;;;;;;8168425;28;20489;-82
2023/01/10 17:01:19;;;;;;;74.75;30.23;;;;;;;;;;8171364;28;20146;-89
2023/01/10 17:05:24;;;;;;;;;;;;;;;;;;8169104;28;20130;-91
2023/01/10 17:09:39;;;;;;;88.03;32.00;;;;;;;;;;8197805;28;19933;-90
2023/01/10 17:14:10;;;;;;;80.60;32.20;;;;;;;;;;8163188;28;20138;-88
2023/01/10 17:18:17;;;;;;;84.05;32.30;;;;;;;;;;8157257;29;20104;-86
2023/01/10 17:22:21;;;;;;;87.18;30.83;;;;;;;;;;8151662;29;20064;-87
2023/01/10 17:26:29;;;;;;;80.10;31.52;;;;;;;;;;8157294;29;20126;-89
2023/01/10 17:31:03;;;;;;;99.55;37.53;;;;;;;;;;8158895;29;20456;-89
2023/01/10 17:35:21;;;;;;;95.55;34.78;;;;;;;;;;8157383;29;20047;-90
2023/01/10 17:39:24;;;;;;;94.82;39.05;;;;;;;;;;8147291;29;20048;-84
2023/01/10 17:43:31;;;;;;;100.88;39.38;;;;;;;;;;8151922;29;20066;-90
2023/01/10 17:47:36;;;;;;;94.55;37.30;;;;;;;;;;8152432;29;20052;-88
2023/01/10 17:51:40;;;;;;;99.05;36.17;;;;;;;;;;8138791;29;20356;-90
2023/01/10 17:55:45;;;;;;;89.22;32.90;;;;;;;;;;8137479;29;20677;-87
2023/01/10 17:59:49;;;;;;;96.55;37.42;;;;;;;;;;8134962;29;20061;-87
2023/01/10 18:03:52;;;;;;;108.00;40.58;;;;;;;;;;8119282;29;20055;-86
2023/01/10 18:07:55;;;;;;;116.50;41.60;;;;;;;;;;8136106;29;21371;-84
2023/01/10 18:11:58;;;;;;;109.65;40.95;;;;;;;;;;8139235;29;20516;-87
2023/01/10 18:16:03;;;;;;;112.85;41.97;;;;;;;;;;8169610;29;20050;-87
2023/01/10 18:20:08;;;;;;;123.68;43.83;;;;;;;;;;8167106;28;20150;-86
2023/01/10 18:24:11;;;;;;;106.60;37.08;;;;;;;;;;8179568;28;20081;-84
2023/01/10 18:28:14;;;;;;;106.15;36.78;;;;;;;;;;8193648;28;20047;-84
2023/01/10 18:32:21;;;;;;;102.80;36.85;;;;;;;;;;8191447;28;20282;-83
2023/01/10 18:36:25;;;;;;;97.40;35.53;;;;;;;;;;8175809;28;20051;-84
2023/01/10 18:40:28;;;;;;;92.20;36.60;;;;;;;;;;8184933;28;20079;-85
2023/01/10 18:44:33;;;;;;;104.22;35.95;;;;;;;;;;8174723;28;20039;-85
2023/01/10 18:48:40;;;;;;;107.82;40.55;;;;;;;;;;8158517;28;20721;-83
2023/01/10 18:52:43;;;;;;;101.50;38.45;;;;;;;;;;8179259;28;20043;-90
2023/01/10 18:56:46;;;;;;;106.70;37.95;;;;;;;;;;8196969;28;20538;-89
2023/01/10 19:00:51;;;;;;;100.13;36.78;;;;;;;;;;8170260;28;20054;-83
2023/01/10 19:05:00;;;;;;;87.65;32.70;;;;;;;;;;8195518;29;20514;-86
2023/01/10 19:09:04;;;;;;;88.30;33.80;;;;;;;;;;8187828;28;20054;-87
2023/01/10 19:13:08;;;;;;;86.32;32.10;;;;;;;;;;8187318;28;20062;-84
2023/01/10 19:17:13;;;;;;;79.55;31.23;;;;;;;;;;8192483;28;20094;-84
2023/01/10 19:21:19;;;;;;;83.93;29.65;;;;;;;;;;8176126;28;20481;-90
2023/01/10 19:25:23;;;;;;;86.22;31.17;;;;;;;;;;8170428;28;20047;-90
2023/01/10 19:29:44;;;;;;;67.72;24.63;;;;;;;;;;8162862;28;20138;-90
2023/01/10 19:33:49;;;;;;;63.83;25.25;;;;;;;;;;8174815;28;20048;-86
2023/01/10 19:37:55;;;;;;;78.85;28.50;;;;;;;;;;8173706;28;20054;-84
2023/01/10 19:41:59;;;;;;;73.53;27.30;;;;;;;;;;8169993;28;20052;-90
2023/01/10 19:46:06;;;;;;;66.22;25.15;;;;;;;;;;8168976;28;20044;-89
2023/01/10 19:50:11;;;;;;;63.78;25.35;;;;;;;;;;8172791;28;20079;-86
2023/01/10 19:54:15;;;;;;;60.15;22.08;;;;;;;;;;8189079;28;20122;-91
2023/01/10 19:58:20;;;;;;;57.92;22.02;;;;;;;;;;8181351;28;20127;-90
2023/01/10 20:02:25;;;;;;;66.93;24.80;;;;;;;;;;8186242;28;20043;-83
2023/01/10 20:06:33;;;;;;;65.50;23.73;;;;;;;;;;8193026;28;20047;-84
2023/01/10 20:10:45;;;;;;;59.25;22.80;;;;;;;;;;8192309;28;20139;-84
2023/01/10 20:14:50;;;;;;;56.08;22.10;;;;;;;;;;8181963;29;20083;-84
2023/01/10 20:18:54;;;;;;;61.83;23.40;;;;;;;;;;8173652;28;20419;-83
2023/01/10 20:22:58;;;;;;;69.28;25.00;;;;;;;;;;8186781;28;20472;-83
2023/01/10 20:27:08;;;;;;;60.60;24.48;;;;;;;;;;8195638;28;20531;-84
2023/01/10 20:31:14;;;;;;;67.93;27.73;;;;;;;;;;8194568;28;20138;-83
2023/01/10 20:35:20;;;;;;;59.05;25.10;;;;;;;;;;8200834;28;20043;-84
2023/01/10 20:39:25;;;;;;;55.28;22.40;;;;;;;;;;8201412;28;20067;-83
2023/01/10 20:43:30;;;;;;;55.97;22.08;;;;;;;;;;8199832;29;20153;-84
2023/01/10 20:47:33;;;;;;;54.33;21.83;;;;;;;;;;8195642;29;20094;-83
2023/01/10 20:51:38;;;;;;;53.28;22.40;;;;;;;;;;8199742;29;20460;-83
2023/01/10 20:55:41;;;;;;;58.42;23.05;;;;;;;;;;8200639;29;20055;-83
2023/01/10 20:59:45;;;;;;;47.50;21.35;;;;;;;;;;8199587;29;20043;-85
2023/01/10 21:03:48;;;;;;;52.65;22.77;;;;;;;;;;8199746;29;20047;-84
2023/01/10 21:07:52;;;;;;;50.60;20.92;;;;;;;;;;8199405;29;20055;-84
2023/01/10 21:11:55;;;;;;;59.30;23.15;;;;;;;;;;8198918;28;20609;-83
2023/01/10 21:16:00;;;;;;;55.22;21.27;;;;;;;;;;8196675;28;20047;-82
2023/01/10 21:20:03;;;;;;;56.15;20.95;;;;;;;;;;8202611;28;20051;-84
2023/01/10 21:24:07;;;;;;;56.95;20.55;;;;;;;;;;8205600;29;20035;-84
2023/01/10 21:28:10;;;;;;;57.63;23.20;;;;;;;;;;8205154;29;20184;-84
2023/01/10 21:32:14;;;;;;;64.75;23.48;;;;;;;;;;8205106;28;20539;-83
2023/01/10 21:36:18;;;;;;;62.30;24.88;;;;;;;;;;8203551;29;20059;-85
2023/01/10 21:40:21;;;;;;;58.10;22.65;;;;;;;;;;8203644;29;20054;-84
2023/01/10 21:44:25;;;;;;;71.35;23.63;;;;;;;;;;8203186;29;20452;-83
2023/01/10 21:48:30;;;;;;;70.88;26.05;;;;;;;;;;8206507;28;20066;-83
2023/01/10 21:52:33;;;;;;;72.45;26.10;;;;;;;;;;8213026;28;20106;-83
2023/01/10 21:56:36;;;;;;;69.85;26.38;;;;;;;;;;8204389;29;20126;-84
2023/01/10 22:00:39;;;;;;;61.97;26.13;;;;;;;;;;8204479;29;20058;-85
2023/01/10 22:04:47;;;;;;;61.83;23.70;;;;;;;;;;8204228;29;20614;-84
2023/01/10 22:08:51;;;;;;;65.22;25.27;;;;;;;;;;8204340;29;20053;-84
2023/01/10 22:12:54;;;;;;;66.28;26.02;;;;;;;;;;8203656;28;20059;-83
2023/01/10 22:16:57;;;;;;;72.57;27.58;;;;;;;;;;8203969;29;20130;-83
2023/01/10 22:21:02;;;;;;;78.55;27.77;;;;;;;;;;8203896;29;20139;-83
2023/01/10 22:25:06;;;;;;;73.43;26.58;;;;;;;;;;8203640;29;20055;-84
2023/01/10 22:29:09;;;;;;;68.63;26.35;;;;;;;;;;8202909;28;20051;-84
2023/01/10 22:33:12;;;;;;;76.45;27.50;;;;;;;;;;8203404;29;20053;-83
2023/01/10 22:37:17;;;;;;;83.10;26.75;;;;;;;;;;8203592;29;20105;-84
2023/01/10 22:41:25;;;;;;;74.82;27.35;;;;;;;;;;8181017;29;20103;-83
2023/01/10 22:45:30;;;;;;;70.43;26.40;;;;;;;;;;8203503;29;20483;-83
2023/01/10 22:49:33;;;;;;;79.93;26.15;;;;;;;;;;8202830;29;20090;-84
2023/01/10 22:53:37;;;;;;;69.70;25.23;;;;;;;;;;8202771;29;20047;-84
2023/01/10 22:57:40;;;;;;;70.57;24.02;;;;;;;;;;8202706;29;20043;-83
2023/01/10 23:01:43;;;;;;;76.05;25.10;;;;;;;;;;8203018;29;20444;-87
2023/01/10 23:05:45;;;;;;;70.18;23.30;;;;;;;;;;8202508;29;20448;-84
2023/01/10 23:09:49;;;;;;;62.00;23.73;;;;;;;;;;8202600;29;20408;-84
2023/01/10 23:13:52;;;;;;;75.07;23.73;;;;;;;;;;8191081;28;20226;-85
2023/01/10 23:17:55;;;;;;;67.10;24.15;;;;;;;;;;8200550;29;20468;-84
2023/01/10 23:21:58;;;;;;;68.60;24.95;;;;;;;;;;8201866;29;20130;-83
2023/01/10 23:26:03;;;;;;;72.30;23.98;;;;;;;;;;8201892;29;20487;-84
2023/01/10 23:30:07;;;;;;;70.15;23.77;;;;;;;;;;8201848;29;20504;-85
2023/01/10 23:34:10;;;;;;;72.82;24.38;;;;;;;;;;8194500;28;20475;-83
2023/01/10 23:38:14;;;;;;;70.40;26.25;;;;;;;;;;8207466;28;20047;-83
2023/01/10 23:42:18;;;;;;;72.57;26.00;;;;;;;;;;8200695;28;20098;-84
2023/01/10 23:46:21;;;;;;;79.07;26.60;;;;;;;;;;8201737;29;20055;-84
2023/01/10 23:50:25;;;;;;;64.70;21.92;;;;;;;;;;8193204;28;20043;-84
2023/01/10 23:54:27;;;;;;;66.80;22.17;;;;;;;;;;8194992;28;20480;-83
2023/01/10 23:58:32;;;;;;;61.13;22.13;;;;;;;;;;8199315;28;20051;-84
